Time;durP1;ratioP1;P1;durP2;ratioP2;P2;SDS_P1;SDS_P2;PMS_P1;PMS_P2;Temp;Humidity;BMP_temperature;BMP_pressure;BME280_temperature;BME280_humidity;BME280_pressure;Samples;Min_cycle;Max_cycle;Signal;HPM_P1;HPM_P2
2022/09/12 00:00:35;;;;;;;5.97;5.53;;;;;;;19.61;93.73;99084.97;5076025;28;20203;-73
2022/09/12 00:03:02;;;;;;;5.33;5.03;;;;;;;19.60;94.16;99077.97;5075595;28;20671;-72
2022/09/12 00:05:29;;;;;;;6.07;5.67;;;;;;;19.72;93.90;99076.66;5075704;28;20249;-73
2022/09/12 00:07:56;;;;;;;5.07;4.77;;;;;;;19.82;93.90;99076.69;5075923;28;20207;-72
2022/09/12 00:10:23;;;;;;;5.60;5.30;;;;;;;19.80;93.83;99073.44;5075569;28;20188;-73
2022/09/12 00:12:52;;;;;;;5.73;5.33;;;;;;;19.87;93.54;99078.59;5075326;28;20196;-74
2022/09/12 00:15:18;;;;;;;6.10;5.63;;;;;;;19.86;93.82;99076.97;5075427;28;20244;-75
2022/09/12 00:17:45;;;;;;;6.20;5.60;;;;;;;19.71;94.73;99079.59;5075314;28;20756;-73
2022/09/12 00:20:12;;;;;;;5.70;5.30;;;;;;;19.71;94.66;99085.00;5065815;28;20243;-74
2022/09/12 00:22:39;;;;;;;5.67;5.27;;;;;;;19.79;95.12;99087.19;5055556;28;20211;-74
2022/09/12 00:25:06;;;;;;;5.80;5.33;;;;;;;19.75;96.94;99092.31;5055047;28;20625;-74
2022/09/12 00:27:33;;;;;;;5.80;5.40;;;;;;;19.78;97.39;99090.97;5055615;28;20192;-74
2022/09/12 00:30:01;;;;;;;6.17;5.67;;;;;;;19.63;98.08;99093.59;5055038;28;20252;-72
2022/09/12 00:32:28;;;;;;;5.47;5.07;;;;;;;19.64;98.15;99100.63;5054962;28;20224;-73
2022/09/12 00:34:55;;;;;;;5.97;5.67;;;;;;;19.58;99.59;99098.97;5054946;28;20188;-73
2022/09/12 00:37:21;;;;;;;5.90;5.40;;;;;;;19.71;99.92;99099.28;5055771;28;20258;-73
2022/09/12 00:39:48;;;;;;;5.83;5.53;;;;;;;19.65;100.00;99104.94;5054975;28;20192;-73
2022/09/12 00:42:15;;;;;;;6.23;5.83;;;;;;;19.55;100.00;99091.41;5054866;28;20629;-72
2022/09/12 00:44:48;;;;;;;6.33;5.87;;;;;;;19.60;100.00;99099.53;5055242;28;20258;-74
2022/09/12 00:47:22;;;;;;;5.90;5.47;;;;;;;19.63;100.00;99089.03;5055470;28;20212;-74
2022/09/12 00:49:54;;;;;;;5.13;4.73;;;;;;;19.94;100.00;99087.25;5054925;28;20714;-77
2022/09/12 00:52:27;;;;;;;5.83;5.47;;;;;;;19.88;99.42;99077.50;5055562;28;20607;-76
2022/09/12 00:54:58;;;;;;;5.53;5.23;;;;;;;20.38;100.00;99069.53;5054764;28;20188;-74
2022/09/12 00:57:32;;;;;;;4.97;4.67;;;;;;;20.59;98.46;99077.34;5055187;28;20197;-73
2022/09/12 01:00:02;;;;;;;5.47;5.17;;;;;;;20.79;93.73;99078.41;5055829;28;20185;-75
2022/09/12 01:02:30;;;;;;;5.70;4.90;;;;;;;20.53;94.71;99074.91;5054531;28;20192;-73
2022/09/12 01:04:57;;;;;;;5.07;4.77;;;;;;;20.45;96.27;99080.84;5054521;28;20193;-74
2022/09/12 01:07:24;;;;;;;5.53;5.03;;;;;;;20.13;96.27;99072.19;5053566;28;20246;-74
2022/09/12 01:09:51;;;;;;;5.70;5.40;;;;;;;20.12;96.39;99062.47;5055180;28;20232;-73
2022/09/12 01:12:18;;;;;;;5.63;5.13;;;;;;;19.77;97.52;99063.19;5054538;28;20286;-74
2022/09/12 01:14:45;;;;;;;6.13;5.83;;;;;;;20.05;96.90;99064.63;5054288;28;20680;-73
2022/09/12 01:17:13;;;;;;;5.47;5.17;;;;;;;19.91;96.76;99079.66;5054663;28;20197;-74
2022/09/12 01:20:16;;;;;;;5.70;5.40;;;;;;;19.95;97.21;99075.38;5059486;28;20220;-73
2022/09/12 01:23:10;;;;;;;5.63;5.40;;;;;;;20.22;95.79;99070.59;5072135;28;20257;-72
2022/09/12 01:25:51;;;;;;;6.10;5.80;;;;;;;20.28;95.72;99070.34;5074290;28;20188;-73
2022/09/12 01:28:46;;;;;;;6.07;5.77;;;;;;;20.75;92.70;99078.16;5074089;28;20647;-73
2022/09/12 01:31:19;;;;;;;4.80;4.50;;;;;;;21.13;92.88;99064.06;5075198;28;20211;-73
2022/09/12 01:34:05;;;;;;;5.23;4.97;;;;;;;21.57;89.51;99075.81;5073995;28;20234;-73
2022/09/12 01:36:37;;;;;;;5.33;4.93;;;;;;;22.02;86.17;99069.38;5073951;28;20257;-73
2022/09/12 01:39:06;;;;;;;4.93;4.73;;;;;;;22.08;85.57;99074.47;5074558;28;20183;-73
2022/09/12 01:41:48;;;;;;;4.43;4.03;;;;;;;21.96;82.49;99059.69;5074160;28;20200;-73
2022/09/12 01:44:24;;;;;;;5.00;4.70;;;;;;;21.98;82.55;99069.13;5074195;28;20180;-73
2022/09/12 01:46:59;;;;;;;4.50;4.30;;;;;;;21.50;84.33;99067.19;5073843;28;20654;-74
2022/09/12 01:49:29;;;;;;;4.97;4.57;;;;;;;21.17;85.84;99061.63;5073621;28;20655;-74
2022/09/12 01:52:01;;;;;;;4.33;4.10;;;;;;;21.35;85.20;99071.84;5073511;28;20227;-74
2022/09/12 01:54:35;;;;;;;4.80;4.60;;;;;;;20.90;86.26;99059.22;5073544;28;20275;-74
2022/09/12 01:57:08;;;;;;;4.63;4.37;;;;;;;20.69;88.52;99051.44;5074303;28;20184;-74
2022/09/12 01:59:41;;;;;;;4.43;4.23;;;;;;;20.58;86.95;99045.22;5073950;28;20188;-74
2022/09/12 02:02:13;;;;;;;4.90;4.50;;;;;;;20.32;88.23;99054.41;5073485;28;20192;-74
2022/09/12 02:04:47;;;;;;;4.93;4.63;;;;;;;19.66;90.82;99049.97;5073437;28;20641;-74
2022/09/12 02:07:19;;;;;;;9.47;4.73;;;;;;;19.64;91.74;99052.13;5073998;28;20248;-74
2022/09/12 02:09:49;;;;;;;4.97;4.77;;;;;;;19.35;92.26;99053.59;5073603;28;20231;-73
2022/09/12 02:12:21;;;;;;;5.17;4.87;;;;;;;19.21;94.33;99047.06;5074383;28;20211;-73
2022/09/12 02:14:54;;;;;;;4.73;4.43;;;;;;;19.15;94.18;99053.50;5073731;28;20184;-76
2022/09/12 02:17:25;;;;;;;4.90;4.70;;;;;;;19.05;94.32;99054.25;5073172;28;20600;-74
2022/09/12 02:19:55;;;;;;;6.27;4.90;;;;;;;18.85;94.37;99050.63;5066191;28;20208;-74
2022/09/12 02:22:26;;;;;;;4.63;4.43;;;;;;;18.79;95.13;99048.97;5053174;28;20662;-74
2022/09/12 02:24:57;;;;;;;4.90;4.60;;;;;;;18.77;94.45;99056.47;5053131;28;20189;-75
2022/09/12 02:27:27;;;;;;;5.07;4.67;;;;;;;18.76;94.63;99054.88;5053503;28;20198;-75
2022/09/12 02:29:54;;;;;;;5.00;4.80;;;;;;;18.61;95.33;99057.44;5053332;28;20186;-73
2022/09/12 02:32:31;;;;;;;5.50;5.00;;;;;;;18.63;95.49;99049.94;5053128;28;20225;-72
2022/09/12 02:35:05;;;;;;;5.50;5.10;;;;;;;18.72;93.69;99053.75;5053312;28;20188;-72
2022/09/12 02:37:42;;;;;;;5.20;4.90;;;;;;;18.68;93.94;99049.97;5053976;28;20327;-73
2022/09/12 02:40:09;;;;;;;5.23;4.90;;;;;;;18.65;93.63;99055.84;5052700;28;20240;-72
2022/09/12 02:42:36;;;;;;;4.67;4.43;;;;;;;18.60;93.58;99050.44;5052537;28;20205;-72
2022/09/12 02:45:04;;;;;;;5.27;4.97;;;;;;;18.62;92.66;99053.72;5052892;28;20261;-73
2022/09/12 02:47:37;;;;;;;5.67;5.27;;;;;;;18.55;92.62;99042.34;5052919;28;20281;-72
2022/09/12 02:50:06;;;;;;;4.70;4.50;;;;;;;18.55;93.72;99053.09;5052551;28;20238;-74
2022/09/12 02:52:34;;;;;;;6.30;5.90;;;;;;;18.52;93.25;99056.31;5052436;28;20218;-74
2022/09/12 02:55:01;;;;;;;4.83;4.37;;;;;;;18.68;91.26;99049.97;5052710;28;20198;-73
2022/09/12 02:57:27;;;;;;;4.90;4.70;;;;;;;18.69;91.27;99043.50;5053370;28;20190;-73
2022/09/12 02:59:59;;;;;;;4.67;4.47;;;;;;;18.65;90.16;99045.91;5052287;28;20231;-72
2022/09/12 03:02:32;;;;;;;4.50;4.30;;;;;;;18.57;89.91;99046.41;5053520;28;20195;-73
2022/09/12 03:05:18;;;;;;;4.53;4.30;;;;;;;18.57;90.19;99040.19;5052287;28;20187;-75
2022/09/12 03:08:16;;;;;;;4.20;4.00;;;;;;;18.78;89.36;99036.59;5053161;28;20252;-74
2022/09/12 03:11:02;;;;;;;4.47;4.23;;;;;;;18.79;89.82;99033.63;5037415;28;20719;-74
2022/09/12 03:13:40;;;;;;;4.27;3.97;;;;;;;18.75;89.42;99031.72;5052096;28;20685;-75
2022/09/12 03:16:15;;;;;;;4.30;4.10;;;;;;;18.82;89.11;99037.66;5052481;28;20188;-76
2022/09/12 03:18:51;;;;;;;3.93;3.83;;;;;;;18.68;89.90;99039.22;5052127;28;20189;-73
2022/09/12 03:21:26;;;;;;;4.57;4.27;;;;;;;18.57;89.83;99040.19;5071339;28;20255;-73
2022/09/12 03:24:05;;;;;;;4.10;3.83;;;;;;;18.49;90.02;99052.25;5072959;28;20191;-72
2022/09/12 03:26:38;;;;;;;4.43;4.13;;;;;;;18.31;91.41;99046.44;5072262;28;20188;-73
2022/09/12 03:29:07;;;;;;;4.53;4.10;;;;;;;18.31;90.88;99051.81;5071725;28;20188;-75
2022/09/12 03:31:33;;;;;;;4.60;4.30;;;;;;;18.24;91.15;99056.56;5071691;28;20245;-73
2022/09/12 03:34:01;;;;;;;3.80;3.60;;;;;;;18.19;90.57;99048.47;5071812;28;20194;-74
2022/09/12 03:36:30;;;;;;;3.73;3.53;;;;;;;18.23;90.64;99052.28;5072047;28;20189;-74
2022/09/12 03:38:57;;;;;;;4.50;4.20;;;;;;;18.22;90.96;99053.34;5072053;28;20625;-73
2022/09/12 03:41:24;;;;;;;4.20;3.70;;;;;;;18.22;89.95;99043.38;5071813;28;20198;-74
2022/09/12 03:43:50;;;;;;;5.77;3.90;;;;;;;18.24;91.02;99052.03;5072608;28;20200;-73
2022/09/12 03:46:17;;;;;;;3.97;3.67;;;;;;;18.14;90.66;99056.50;5072304;28;20249;-74
2022/09/12 03:48:44;;;;;;;4.50;4.10;;;;;;;18.15;90.41;99058.13;5072215;28;20266;-75
2022/09/12 03:51:11;;;;;;;3.70;3.50;;;;;;;18.24;89.63;99056.56;5072063;28;20192;-73
2022/09/12 03:53:39;;;;;;;3.87;3.57;;;;;;;18.16;90.15;99059.72;5071603;28;20219;-73
2022/09/12 03:56:07;;;;;;;3.90;3.60;;;;;;;18.19;89.95;99067.28;5071873;28;20254;-73
2022/09/12 03:58:35;;;;;;;3.40;3.30;;;;;;;18.17;89.67;99056.00;5071664;28;20221;-72
2022/09/12 04:01:06;;;;;;;3.20;2.80;;;;;;;18.29;88.88;99062.03;5071601;28;20196;-72
2022/09/12 04:03:33;;;;;;;2.90;2.80;;;;;;;18.34;88.84;99057.50;5072550;28;20189;-73
2022/09/12 04:05:59;;;;;;;3.77;3.30;;;;;;;18.36;87.39;99059.94;5071333;28;20793;-72
2022/09/12 04:08:27;;;;;;;3.93;3.30;;;;;;;18.18;88.37;99069.16;5071797;28;20232;-72
2022/09/12 04:11:02;;;;;;;3.60;2.80;;;;;;;18.16;88.26;99065.09;5071406;28;20191;-73
2022/09/12 04:13:29;;;;;;;3.37;3.17;;;;;;;18.23;88.69;99065.72;5071817;28;20211;-73
2022/09/12 04:15:57;;;;;;;3.30;3.10;;;;;;;18.23;88.13;99069.22;5071241;28;20659;-72
2022/09/12 04:18:24;;;;;;;3.30;2.67;;;;;;;18.15;88.39;99076.94;5071629;28;20192;-74
2022/09/12 04:20:50;;;;;;;3.73;3.43;;;;;;;18.27;88.50;99077.59;5056103;28;20256;-73
2022/09/12 04:23:17;;;;;;;3.23;3.00;;;;;;;18.68;86.53;99079.56;5051887;28;20251;-73
2022/09/12 04:25:44;;;;;;;3.03;2.93;;;;;;;18.91;84.56;99085.38;5051286;28;20230;-74
2022/09/12 04:28:12;;;;;;;3.27;3.07;;;;;;;19.20;83.73;99085.84;5051760;28;20193;-74
2022/09/12 04:30:39;;;;;;;3.07;2.53;;;;;;;19.62;82.01;99091.97;5051657;28;20200;-77
2022/09/12 04:33:05;;;;;;;3.53;2.70;;;;;;;20.25;79.92;99086.22;5051295;28;20217;-74
2022/09/12 04:35:35;;;;;;;2.30;2.13;;;;;;;20.38;77.65;99091.91;5051527;28;20196;-74
2022/09/12 04:38:01;;;;;;;2.90;2.43;;;;;;;20.84;75.53;99105.41;5051814;28;20262;-74
2022/09/12 04:40:29;;;;;;;4.77;2.43;;;;;;;21.02;74.18;99118.41;5051438;28;20197;-74
2022/09/12 04:42:56;;;;;;;2.17;2.03;;;;;;;21.29;72.75;99116.16;5055238;28;20265;-74
2022/09/12 04:45:24;;;;;;;3.40;2.43;;;;;;;21.71;71.11;99117.41;5054756;28;20231;-74
2022/09/12 04:47:51;;;;;;;1.97;1.87;;;;;;;22.28;71.07;99119.53;5055004;28;20193;-73
2022/09/12 04:50:19;;;;;;;4.37;2.20;;;;;;;22.22;68.15;99129.56;5055355;28;20197;-74
2022/09/12 04:52:49;;;;;;;1.87;1.77;;;;;;;22.02;68.68;99137.00;5055623;28;20289;-74
2022/09/12 04:55:16;;;;;;;2.40;2.30;;;;;;;22.22;67.17;99136.91;5054617;28;20184;-73
2022/09/12 04:57:43;;;;;;;1.83;1.73;;;;;;;22.49;66.39;99140.78;5054930;28;20199;-75
2022/09/12 05:00:13;;;;;;;3.73;1.80;;;;;;;22.77;65.47;99140.03;5054619;28;20262;-73
2022/09/12 05:02:41;;;;;;;1.73;1.63;;;;;;;22.77;64.54;99144.63;5054889;28;20263;-73
2022/09/12 05:05:09;;;;;;;2.10;1.90;;;;;;;22.84;64.60;99147.84;5054826;28;20196;-73
2022/09/12 05:07:36;;;;;;;2.70;1.97;;;;;;;23.22;63.24;99152.41;5054470;28;20196;-74
2022/09/12 05:10:03;;;;;;;1.80;1.70;;;;;;;23.28;62.69;99160.19;5055049;28;20291;-75
2022/09/12 05:12:31;;;;;;;2.87;2.17;;;;;;;23.34;62.18;99156.34;5053968;28;20223;-74
2022/09/12 05:14:57;;;;;;;4.53;1.90;;;;;;;23.69;60.85;99150.53;5054209;28;20250;-76
2022/09/12 05:17:24;;;;;;;4.40;1.80;;;;;;;24.15;59.38;99158.94;5054623;28;20262;-77
2022/09/12 05:19:52;;;;;;;3.37;1.80;;;;;;;24.20;60.43;99156.97;5061013;28;20667;-76
2022/09/12 05:22:19;;;;;;;2.00;1.77;;;;;;;24.23;58.46;99167.25;5074304;28;20198;-76
2022/09/12 05:24:47;;;;;;;3.40;1.60;;;;;;;24.22;58.79;99164.81;5071163;28;20251;-75
2022/09/12 05:27:14;;;;;;;1.80;1.70;;;;;;;24.92;59.33;99170.00;5073568;28;20228;-76
2022/09/12 05:29:41;;;;;;;1.70;1.63;;;;;;;25.28;58.38;99166.72;5074250;28;20190;-74
2022/09/12 05:32:08;;;;;;;2.57;1.60;;;;;;;26.00;54.21;99184.97;5073848;28;20222;-74
2022/09/12 05:34:36;;;;;;;2.47;1.70;;;;;;;26.48;51.81;99184.16;5074201;28;20204;-74
2022/09/12 05:37:05;;;;;;;8.90;2.00;;;;;;;26.85;52.44;99188.50;5073851;28;20192;-74
2022/09/12 05:39:31;;;;;;;2.03;1.50;;;;;;;27.05;50.41;99188.00;5074646;28;20711;-74
2022/09/12 05:41:58;;;;;;;3.43;2.17;;;;;;;27.21;49.41;99181.09;5074194;28;20196;-74
2022/09/12 05:44:25;;;;;;;3.80;1.70;;;;;;;27.71;49.17;99193.38;5074496;28;20545;-74
2022/09/12 05:46:52;;;;;;;1.73;1.60;;;;;;;27.18;49.83;99189.84;5074751;28;20192;-74
2022/09/12 05:49:20;;;;;;;4.07;1.73;;;;;;;27.87;48.27;99191.88;5074041;28;20195;-74
2022/09/12 05:51:47;;;;;;;1.67;1.37;;;;;;;28.19;44.74;99188.75;5073633;28;20197;-73
2022/09/12 05:54:18;;;;;;;5.63;1.40;;;;;;;27.32;47.37;99171.53;5072887;28;20216;-73
2022/09/12 05:56:45;;;;;;;4.83;1.90;;;;;;;27.71;46.68;99177.00;5074648;28;20184;-73
2022/09/12 05:59:14;;;;;;;4.67;1.90;;;;;;;28.14;44.56;99170.56;5074078;28;20626;-73
2022/09/12 06:01:41;;;;;;;6.37;1.57;;;;;;;27.25;47.08;99171.97;5073999;28;20626;-72
2022/09/12 06:04:08;;;;;;;2.57;1.70;;;;;;;26.60;47.28;99165.38;5073799;28;20199;-71
2022/09/12 06:06:37;;;;;;;4.07;1.60;;;;;;;26.69;49.70;99170.88;5075247;28;20204;-79
2022/09/12 06:09:06;;;;;;;1.70;1.60;;;;;;;26.22;47.69;99165.97;5076165;28;20713;-76
2022/09/12 06:11:36;;;;;;;8.23;3.13;;;;;;;25.61;50.73;99160.94;5072930;28;20208;-75
2022/09/12 06:14:03;;;;;;;3.90;1.77;;;;;;;26.25;48.84;99166.13;5073264;28;20220;-79
2022/09/12 06:16:31;;;;;;;2.27;1.70;;;;;;;26.32;48.37;99166.53;5072984;28;20254;-77
2022/09/12 06:18:59;;;;;;;7.00;1.47;;;;;;;26.92;47.33;99170.59;5073447;28;20659;-74
2022/09/12 06:21:29;;;;;;;4.00;2.07;;;;;;;27.63;46.24;99175.84;5072667;28;20199;-76
2022/09/12 06:23:57;;;;;;;6.13;1.63;;;;;;;27.23;46.32;99167.94;5072814;28;20291;-74
2022/09/12 06:26:24;;;;;;;6.80;1.80;;;;;;;27.23;46.36;99160.56;5065534;28;20619;-76
2022/09/12 06:28:54;;;;;;;2.70;1.70;;;;;;;26.96;47.07;99155.25;5054887;28;20192;-74
2022/09/12 06:31:23;;;;;;;3.43;1.57;;;;;;;27.08;45.18;99162.84;5072761;28;20192;-77
2022/09/12 06:33:52;;;;;;;2.97;1.00;;;;;;;26.49;47.74;99165.88;5065455;28;20212;-75
2022/09/12 06:36:21;;;;;;;4.67;1.47;;;;;;;26.79;49.75;99148.84;5071680;28;20268;-80
2022/09/12 06:38:48;;;;;;;3.70;1.60;;;;;;;26.91;49.10;99152.63;5072459;28;20206;-81
2022/09/12 06:41:15;;;;;;;2.07;1.53;;;;;;;26.77;46.36;99157.34;5072694;28;20200;-78
2022/09/12 06:43:42;;;;;;;5.80;1.87;;;;;;;27.30;47.79;99149.19;5053782;28;20197;-77
2022/09/12 06:46:11;;;;;;;9.20;2.07;;;;;;;27.21;47.09;99151.06;5053896;28;20736;-74
2022/09/12 06:48:39;;;;;;;1.80;1.57;;;;;;;26.66;47.34;99155.97;5060824;28;20194;-69
2022/09/12 06:51:07;;;;;;;1.90;1.67;;;;;;;26.31;47.62;99158.66;5064447;28;20199;-71
2022/09/12 06:53:35;;;;;;;12.03;1.97;;;;;;;26.54;48.57;99160.34;5072443;28;20282;-70
2022/09/12 06:56:05;;;;;;;5.63;1.90;;;;;;;26.81;47.59;99152.06;5055069;28;20571;-75
2022/09/12 06:58:33;;;;;;;12.13;1.77;;;;;;;27.06;47.29;99160.44;5052217;28;20200;-73
2022/09/12 07:01:02;;;;;;;3.83;1.40;;;;;;;26.47;48.44;99149.84;5072172;28;20196;-71
2022/09/12 07:03:31;;;;;;;6.77;1.43;;;;;;;26.29;49.63;99148.06;5063939;28;20279;-75
2022/09/12 07:05:57;;;;;;;2.80;1.40;;;;;;;26.68;48.21;99152.94;5051609;28;20196;-69
2022/09/12 07:08:24;;;;;;;1.77;1.53;;;;;;;27.30;46.71;99154.66;5052176;28;20232;-70
2022/09/12 07:10:51;;;;;;;5.53;1.50;;;;;;;27.12;47.67;99150.97;5052744;28;20530;-69
2022/09/12 07:13:18;;;;;;;8.13;1.63;;;;;;;26.88;48.77;99147.00;5051814;28;20229;-69
2022/09/12 07:15:45;;;;;;;4.70;1.43;;;;;;;26.89;47.90;99154.84;5051432;28;20211;-68
2022/09/12 07:18:12;;;;;;;1.23;1.13;;;;;;;26.59;47.95;99155.59;5051500;28;20197;-68
2022/09/12 07:20:41;;;;;;;1.40;1.30;;;;;;;26.17;47.46;99144.28;5054144;28;20287;-69
2022/09/12 07:23:08;;;;;;;2.20;1.10;;;;;;;26.98;48.04;99146.72;5051644;28;20664;-68
2022/09/12 07:25:36;;;;;;;2.07;1.10;;;;;;;27.18;44.90;99159.84;5051845;28;20525;-67
2022/09/12 07:28:03;;;;;;;2.87;1.00;;;;;;;26.22;47.58;99144.16;5051782;28;20226;-68
2022/09/12 07:30:29;;;;;;;3.20;1.20;;;;;;;26.70;46.45;99145.25;5051961;28;20195;-68
2022/09/12 07:32:56;;;;;;;3.80;1.23;;;;;;;26.56;45.36;99145.28;5053993;28;20246;-75
2022/09/12 07:35:23;;;;;;;1.87;1.10;;;;;;;26.78;45.82;99141.81;5071514;28;20599;-73
2022/09/12 07:37:51;;;;;;;2.60;1.30;;;;;;;26.16;47.17;99146.19;5071598;28;20200;-66
2022/09/12 07:40:17;;;;;;;1.73;1.00;;;;;;;26.65;46.59;99154.34;5071596;28;20188;-70
2022/09/12 07:42:44;;;;;;;2.23;0.80;;;;;;;26.94;45.24;99151.19;5071992;28;20195;-68
2022/09/12 07:45:11;;;;;;;2.67;1.00;;;;;;;26.31;45.17;99148.59;5071673;28;20192;-68
2022/09/12 07:47:39;;;;;;;0.90;0.90;;;;;;;26.35;45.73;99154.22;5071550;28;20202;-68
2022/09/12 07:50:07;;;;;;;13.83;2.03;;;;;;;27.05;44.79;99147.09;5071932;28;20204;-68
2022/09/12 07:52:34;;;;;;;2.63;1.00;;;;;;;26.54;44.11;99152.16;5071519;28;20663;-67
2022/09/12 07:55:02;;;;;;;4.50;1.30;;;;;;;26.48;45.26;99151.47;5060243;28;20212;-68
2022/09/12 07:57:29;;;;;;;6.60;1.77;;;;;;;26.59;44.88;99157.50;5051445;28;20288;-68
2022/09/12 07:59:55;;;;;;;1.17;1.10;;;;;;;26.94;43.92;99148.47;5051531;28;20189;-69
2022/09/12 08:02:22;;;;;;;2.93;0.90;;;;;;;26.53;43.56;99156.78;5056797;28;20254;-69
2022/09/12 08:04:50;;;;;;;5.27;1.40;;;;;;;26.74;43.39;99154.44;5071663;28;20257;-69
2022/09/12 08:07:18;;;;;;;5.37;0.80;;;;;;;26.18;43.39;99149.44;5071703;28;20246;-68
2022/09/12 08:09:45;;;;;;;3.10;0.73;;;;;;;25.89;44.39;99148.13;5071950;28;20683;-67
2022/09/12 08:12:13;;;;;;;1.73;0.97;;;;;;;26.25;44.21;99138.13;5071456;28;20286;-67
2022/09/12 08:14:40;;;;;;;2.73;0.70;;;;;;;26.20;43.57;99140.94;5071176;28;20223;-67
2022/09/12 08:17:07;;;;;;;2.47;1.37;;;;;;;26.98;42.21;99135.81;5074013;28;20287;-68
2022/09/12 08:19:33;;;;;;;0.60;0.60;;;;;;;26.46;41.47;99144.72;5074751;28;20663;-67
2022/09/12 08:22:01;;;;;;;4.40;1.13;;;;;;;26.52;42.00;99138.03;5075434;28;20199;-67
2022/09/12 08:24:28;;;;;;;3.33;1.17;;;;;;;26.56;41.27;99139.00;5075417;28;20199;-68
2022/09/12 08:26:55;;;;;;;1.10;1.00;;;;;;;26.43;41.74;99145.31;5075193;28;20671;-68
2022/09/12 08:29:23;;;;;;;0.80;0.80;;;;;;;26.58;41.27;99139.56;5074695;28;20188;-70
2022/09/12 08:31:50;;;;;;;3.80;1.10;;;;;;;27.25;41.26;99143.88;5074940;28;20655;-73
2022/09/12 08:34:18;;;;;;;2.50;0.80;;;;;;;26.80;40.01;99134.09;5061722;28;20232;-68
2022/09/12 08:36:44;;;;;;;1.50;1.13;;;;;;;27.01;40.48;99129.75;5063116;28;20203;-69
2022/09/12 08:39:13;;;;;;;13.47;2.07;;;;;;;27.07;40.31;99133.97;5074883;28;20246;-69
2022/09/12 08:41:41;;;;;;;2.20;0.70;;;;;;;26.63;40.55;99131.25;5074867;28;20202;-70
2022/09/12 08:44:40;;;;;;;0.70;0.70;;;;;;;27.04;40.39;99129.13;5075693;28;20246;-69
2022/09/12 08:47:21;;;;;;;0.93;0.70;;;;;;;27.32;42.25;99127.88;5053872;28;20310;-68
2022/09/12 08:50:00;;;;;;;0.90;0.90;;;;;;;26.99;40.27;99127.31;5074610;28;20188;-68
2022/09/12 08:52:33;;;;;;;0.70;0.70;;;;;;;27.59;40.08;99116.75;5075337;28;20196;-71
2022/09/12 08:55:02;;;;;;;1.43;1.10;;;;;;;28.10;39.40;99109.50;5063949;28;20262;-72
2022/09/12 08:57:28;;;;;;;0.80;0.80;;;;;;;27.26;39.44;99119.03;5054913;28;20192;-72
2022/09/12 08:59:55;;;;;;;1.17;0.80;;;;;;;27.24;39.50;99117.72;5054881;28;20200;-72
2022/09/12 09:02:59;;;;;;;0.80;0.80;;;;;;;27.33;39.60;99116.66;5059146;28;20203;-71
2022/09/12 09:05:40;;;;;;;1.00;0.90;;;;;;;27.96;39.74;99110.78;5055474;28;20256;-72
2022/09/12 09:08:23;;;;;;;1.47;0.80;;;;;;;27.91;38.19;99116.38;5074591;28;20223;-69
2022/09/12 09:10:53;;;;;;;0.70;0.70;;;;;;;27.60;38.41;99115.63;5074313;28;20196;-72
2022/09/12 09:16:24;;;;;;;1.00;0.90;;;;;;;27.68;38.91;99110.19;5074602;28;20234;-68
2022/09/12 09:18:54;;;;;;;0.90;0.90;;;;;;;27.43;39.02;99099.19;5073854;28;20251;-68
2022/09/12 09:21:26;;;;;;;2.47;1.10;;;;;;;27.10;39.30;99106.06;5074107;28;20184;-68
2022/09/12 09:23:58;;;;;;;1.10;0.80;;;;;;;27.74;39.52;99102.66;5074251;28;20746;-68
2022/09/12 09:26:31;;;;;;;1.20;0.90;;;;;;;27.31;39.18;99101.72;5075398;28;20188;-69
2022/09/12 09:29:02;;;;;;;1.90;0.93;;;;;;;27.39;39.50;99092.75;5073919;28;20199;-70
2022/09/12 09:31:35;;;;;;;1.10;1.00;;;;;;;27.48;39.27;99094.38;5074132;28;20278;-69
2022/09/12 09:34:12;;;;;;;3.33;1.17;;;;;;;27.48;40.44;99090.88;5062259;28;20326;-69
2022/09/12 09:36:48;;;;;;;2.20;0.90;;;;;;;27.65;39.54;99090.94;5054576;28;20181;-69
2022/09/12 09:39:25;;;;;;;2.00;1.33;;;;;;;27.78;38.74;99090.00;5057316;28;20317;-70
2022/09/12 09:42:01;;;;;;;1.30;1.00;;;;;;;28.09;39.22;99096.19;5074211;28;20184;-75
2022/09/12 09:44:29;;;;;;;2.23;0.90;;;;;;;27.71;38.33;99095.09;5073775;28;20257;-69
2022/09/12 09:46:58;;;;;;;3.27;0.87;;;;;;;27.92;37.49;99091.50;5073853;28;20191;-72
2022/09/12 09:49:28;;;;;;;1.70;1.00;;;;;;;27.58;39.02;99093.31;5074139;28;20199;-74
2022/09/12 09:51:54;;;;;;;0.90;0.90;;;;;;;27.52;38.28;99102.78;5073808;28;20200;-71
2022/09/12 09:54:25;;;;;;;2.47;0.97;;;;;;;28.17;38.62;99089.94;5067794;28;20222;-74
2022/09/12 09:56:52;;;;;;;4.27;0.90;;;;;;;27.54;37.65;99084.13;5053679;28;20220;-73
2022/09/12 09:59:20;;;;;;;4.67;0.87;;;;;;;27.47;38.56;99078.31;5053431;28;20188;-78
2022/09/12 10:01:50;;;;;;;0.70;0.70;;;;;;;27.85;38.73;99079.44;5061450;28;20258;-74
2022/09/12 10:04:19;;;;;;;4.27;1.20;;;;;;;28.07;37.43;99082.84;5073924;28;20203;-70
2022/09/12 10:06:50;;;;;;;1.73;0.70;;;;;;;28.45;36.88;99088.50;5073580;28;20287;-72
2022/09/12 10:09:25;;;;;;;1.47;0.80;;;;;;;28.67;36.31;99091.06;5073397;28;20240;-71
2022/09/12 10:11:54;;;;;;;3.00;1.00;;;;;;;28.16;36.42;99091.03;5072289;28;20212;-72
2022/09/12 10:14:31;;;;;;;0.90;0.90;;;;;;;28.66;36.95;99087.53;5073512;28;20219;-62
2022/09/12 10:16:58;;;;;;;2.57;0.70;;;;;;;28.80;36.41;99090.91;5073408;28;20697;-62
2022/09/12 10:19:35;;;;;;;4.90;1.17;;;;;;;28.29;36.69;99090.06;5070101;28;20189;-63
2022/09/12 10:22:05;;;;;;;4.50;1.37;;;;;;;27.79;36.78;99075.22;5052983;28;20238;-69
2022/09/12 10:24:35;;;;;;;0.80;0.80;;;;;;;28.09;37.71;99082.53;5056094;28;20192;-72
2022/09/12 10:27:15;;;;;;;1.53;0.70;;;;;;;28.50;35.63;99083.69;5052926;28;20219;-69
2022/09/12 10:29:47;;;;;;;3.13;0.97;;;;;;;28.50;35.21;99091.09;5056426;28;20194;-68
2022/09/12 10:32:23;;;;;;;1.37;1.27;;;;;;;28.30;35.87;99081.56;5062951;28;20272;-68
2022/09/12 10:34:54;;;;;;;2.40;1.10;;;;;;;28.03;36.46;99086.53;5052013;28;20645;-69
2022/09/12 10:37:26;;;;;;;0.97;0.97;;;;;;;28.25;36.41;99076.25;5052033;28;20238;-67
2022/09/12 10:39:56;;;;;;;1.00;1.00;;;;;;;27.96;37.22;99076.09;5058612;28;20196;-69
2022/09/12 10:42:53;;;;;;;1.17;1.07;;;;;;;27.97;37.03;99071.44;5070418;28;20658;-67
2022/09/12 10:45:27;;;;;;;1.00;1.00;;;;;;;28.10;37.63;99073.22;5010977;28;20602;-70
2022/09/12 10:47:57;;;;;;;2.00;1.03;;;;;;;28.43;36.42;99074.38;5061928;28;20192;-68
2022/09/12 10:50:27;;;;;;;3.40;1.00;;;;;;;28.49;35.74;99075.81;5071631;28;20278;-69
2022/09/12 10:53:12;;;;;;;2.53;0.93;;;;;;;28.16;36.42;99070.00;5071290;28;20196;-69
2022/09/12 10:55:41;;;;;;;9.20;1.57;;;;;;;28.01;36.16;99070.47;5078522;28;20239;-71
2022/09/12 10:58:23;;;;;;;1.30;1.20;;;;;;;27.95;36.94;99079.13;5061964;28;20273;-69
2022/09/12 11:00:59;;;;;;;1.00;1.00;;;;;;;27.95;37.50;99074.47;5059416;28;20176;-68
2022/09/12 11:03:47;;;;;;;1.47;0.90;;;;;;;27.66;37.51;99066.03;5060503;28;20275;-69
2022/09/12 11:06:22;;;;;;;0.93;0.83;;;;;;;27.93;36.73;99067.75;5055198;28;20192;-69
2022/09/12 11:09:04;;;;;;;3.27;1.03;;;;;;;28.14;36.17;99074.19;5052783;28;20335;-70
2022/09/12 11:11:45;;;;;;;5.20;1.03;;;;;;;28.02;35.47;99068.53;5072671;28;20245;-69
2022/09/12 11:14:27;;;;;;;0.77;0.77;;;;;;;28.17;35.15;99071.59;5064078;28;20193;-69
2022/09/12 11:17:04;;;;;;;1.00;1.00;;;;;;;28.46;35.91;99073.72;5060294;28;20218;-70
2022/09/12 11:19:57;;;;;;;0.90;0.90;;;;;;;28.79;34.51;99061.91;5053914;28;20183;-67
2022/09/12 11:22:40;;;;;;;3.00;1.00;;;;;;;28.62;34.36;99061.16;5052074;28;20189;-69
2022/09/12 11:25:18;;;;;;;1.27;1.00;;;;;;;27.96;34.85;99062.44;5060116;28;20192;-67
2022/09/12 11:27:59;;;;;;;2.70;1.10;;;;;;;28.02;36.33;99065.81;5072007;28;20191;-68
2022/09/12 11:30:30;;;;;;;0.80;0.80;;;;;;;27.94;36.91;99061.16;5072314;28;20192;-68
2022/09/12 11:33:07;;;;;;;0.97;0.97;;;;;;;27.97;36.13;99071.44;5069278;28;20241;-68
2022/09/12 11:35:35;;;;;;;2.30;1.30;;;;;;;27.64;36.58;99051.13;5052190;28;20258;-70
2022/09/12 11:38:32;;;;;;;2.10;1.20;;;;;;;27.89;36.92;99058.56;5053158;28;20325;-71
2022/09/12 11:41:04;;;;;;;1.10;1.10;;;;;;;27.94;36.34;99055.69;5049757;28;20291;-69
2022/09/12 11:43:38;;;;;;;2.27;1.03;;;;;;;27.80;36.43;99050.31;5072652;28;20185;-70
2022/09/12 11:46:14;;;;;;;2.67;1.53;;;;;;;27.81;37.04;99051.97;5071943;28;20552;-69
2022/09/12 11:48:47;;;;;;;1.23;1.23;;;;;;;27.94;37.50;99044.75;5071866;28;20183;-69
2022/09/12 11:51:19;;;;;;;2.57;1.70;;;;;;;28.05;37.14;99054.25;5071912;28;20183;-69
2022/09/12 11:53:53;;;;;;;2.23;1.30;;;;;;;28.13;37.91;99048.00;5068815;28;20267;-70